createdAt,value
2018-03-04T00:01:58.622Z,1.00
2018-03-04T00:04:26.123Z,1.10
2018-03-04T00:06:53.651Z,1.10
2018-03-04T00:09:21.151Z,1.10
2018-03-04T00:11:49.413Z,1.10
2018-03-04T00:14:16.936Z,1.10
2018-03-04T00:16:44.437Z,1.10
2018-03-04T00:19:12.726Z,1.10
2018-03-04T00:21:40.994Z,1.10
2018-03-04T00:24:09.287Z,1.10
2018-03-04T00:26:36.790Z,1.10
2018-03-04T00:29:04.311Z,1.10
2018-03-04T00:31:31.810Z,1.10
2018-03-04T00:33:59.306Z,1.10
2018-03-04T00:36:27.600Z,1.20
2018-03-04T00:38:55.098Z,1.10
2018-03-04T00:41:22.618Z,1.10
2018-03-04T00:43:50.113Z,1.20
2018-03-04T00:46:17.638Z,1.20
2018-03-04T00:48:45.138Z,1.20
2018-03-04T00:51:12.663Z,1.20
2018-03-04T00:53:40.166Z,1.20
2018-03-04T00:56:07.667Z,1.20
2018-03-04T00:58:35.191Z,1.20
2018-03-04T01:01:02.693Z,1.10
2018-03-04T01:03:30.215Z,1.10
2018-03-04T01:05:57.717Z,1.10
2018-03-04T01:08:25.250Z,1.20
2018-03-04T01:10:53.518Z,1.20
2018-03-04T01:13:21.806Z,1.20
2018-03-04T01:15:49.311Z,1.20
2018-03-04T01:18:16.815Z,1.20
2018-03-04T01:20:45.106Z,1.10
2018-03-04T01:23:12.605Z,1.10
2018-03-04T01:25:40.131Z,1.10
2018-03-04T01:28:07.631Z,1.20
2018-03-04T01:30:35.153Z,1.20
2018-03-04T01:33:02.655Z,1.20
2018-03-04T01:35:30.170Z,1.20
2018-03-04T01:37:57.691Z,1.20
2018-03-04T01:40:25.959Z,1.20
2018-03-04T01:42:53.479Z,1.20
2018-03-04T01:45:20.978Z,1.20
2018-03-04T01:47:48.499Z,1.20
2018-03-04T01:50:15.998Z,1.20
2018-03-04T01:52:44.267Z,1.20
2018-03-04T01:55:11.786Z,1.20
2018-03-04T01:57:39.290Z,1.20
2018-03-04T02:00:07.586Z,1.20
2018-03-04T02:02:35.850Z,1.20
2018-03-04T02:05:04.142Z,1.20
2018-03-04T02:07:31.643Z,1.20
2018-03-04T02:09:59.142Z,1.20
2018-03-04T02:12:27.430Z,1.20
2018-03-04T02:14:55.694Z,1.20
2018-03-04T02:17:23.982Z,1.20
2018-03-04T02:19:52.251Z,1.20
2018-03-04T02:22:20.542Z,1.20
2018-03-04T02:24:48.042Z,1.20
2018-03-04T02:27:15.542Z,1.20
2018-03-04T02:29:43.833Z,1.20
2018-03-04T02:32:11.330Z,1.20
2018-03-04T02:34:38.852Z,1.10
2018-03-04T02:37:06.354Z,1.20
2018-03-04T02:39:33.883Z,1.20
2018-03-04T02:42:01.382Z,1.20
2018-03-04T02:44:28.886Z,1.20
2018-03-04T02:46:56.407Z,1.20
2018-03-04T02:49:23.922Z,1.20
2018-03-04T02:51:51.442Z,1.20
2018-03-04T02:54:19.707Z,1.20
2018-03-04T02:56:48.006Z,1.30
2018-03-04T02:59:16.277Z,1.30
2018-03-04T03:01:44.552Z,1.30
2018-03-04T03:04:12.842Z,1.30
2018-03-04T03:06:40.343Z,1.30
2018-03-04T03:09:07.871Z,1.30
2018-03-04T03:11:35.370Z,1.30
2018-03-04T03:14:02.894Z,1.30
2018-03-04T03:16:30.411Z,1.30
2018-03-04T03:18:57.910Z,1.30
2018-03-04T03:21:25.430Z,1.30
2018-03-04T03:23:53.700Z,1.30
2018-03-04T03:26:21.222Z,1.30
2018-03-04T03:28:48.722Z,1.40
2018-03-04T03:31:16.242Z,1.40
2018-03-04T03:33:43.746Z,1.40
2018-03-04T03:36:12.010Z,1.40
2018-03-04T03:38:39.538Z,1.40
2018-03-04T03:41:07.039Z,1.40
2018-03-04T03:43:35.331Z,1.30
2018-03-04T03:46:02.834Z,1.30
2018-03-04T03:48:30.373Z,1.30
2018-03-04T03:50:57.871Z,1.30
2018-03-04T03:53:25.370Z,1.30
2018-03-04T03:55:52.896Z,1.30
2018-03-04T03:58:21.902Z,1.30
2018-03-04T04:00:50.189Z,1.40
2018-03-04T04:03:18.454Z,1.40
2018-03-04T04:05:46.747Z,1.30
2018-03-04T04:08:14.246Z,1.30
2018-03-04T04:10:41.750Z,1.30
2018-03-04T04:13:10.039Z,1.30
2018-03-04T04:15:37.538Z,1.30
2018-03-04T04:18:05.066Z,1.30
2018-03-04T04:20:32.565Z,1.30
2018-03-04T04:23:00.088Z,1.40
2018-03-04T04:25:27.590Z,1.30
2018-03-04T04:27:55.091Z,1.30
2018-03-04T04:30:22.622Z,1.40
2018-03-04T04:32:50.121Z,1.40
2018-03-04T04:35:17.662Z,1.40
2018-03-04T04:37:45.936Z,1.40
2018-03-04T04:40:14.226Z,1.40
2018-03-04T04:42:41.731Z,1.40
2018-03-04T04:45:09.230Z,1.40
2018-03-04T04:47:37.518Z,1.40
2018-03-04T04:50:05.019Z,1.40
2018-03-04T04:52:32.543Z,1.40
2018-03-04T04:55:00.046Z,1.40
2018-03-04T04:57:27.566Z,1.40
2018-03-04T04:59:55.062Z,1.40
2018-03-04T05:02:22.557Z,1.40
2018-03-04T05:04:50.842Z,1.40
2018-03-04T05:07:18.338Z,1.40
2018-03-04T05:09:45.858Z,1.40
2018-03-04T05:12:13.362Z,1.30
2018-03-04T05:14:40.887Z,1.40
2018-03-04T05:17:08.386Z,1.30
2018-03-04T05:19:35.882Z,1.30
2018-03-04T05:22:04.172Z,1.40
2018-03-04T05:24:31.678Z,1.40
2018-03-04T05:26:59.202Z,1.40
2018-03-04T05:29:26.708Z,1.30
2018-03-04T05:31:54.234Z,1.30
2018-03-04T05:34:21.737Z,1.40
2018-03-04T05:36:49.998Z,1.30
2018-03-04T05:39:17.518Z,1.30
2018-03-04T05:41:45.014Z,1.30
2018-03-04T05:44:12.539Z,1.30
2018-03-04T05:46:40.039Z,1.40
2018-03-04T05:49:07.561Z,1.40
2018-03-04T05:51:35.065Z,1.40
2018-03-04T05:54:03.331Z,1.40
2018-03-04T05:56:30.850Z,1.40
2018-03-04T05:58:58.355Z,1.40
2018-03-04T06:01:25.878Z,1.40
2018-03-04T06:03:53.377Z,1.40
2018-03-04T06:06:21.758Z,1.40
2018-03-04T06:08:50.024Z,1.40
2018-03-04T06:11:18.285Z,1.40
2018-03-04T06:13:45.807Z,1.40
2018-03-04T06:16:13.306Z,1.40
2018-03-04T06:18:40.826Z,1.50
2018-03-04T06:21:08.322Z,1.50
2018-03-04T06:23:35.846Z,1.50
2018-03-04T06:26:03.342Z,1.50
2018-03-04T06:28:30.843Z,1.60
2018-03-04T06:30:58.366Z,1.60
2018-03-04T06:33:25.905Z,1.60
2018-03-04T06:35:53.414Z,1.60
2018-03-04T06:38:20.909Z,1.70
2018-03-04T06:40:48.434Z,1.70
2018-03-04T06:43:15.939Z,1.70
2018-03-04T06:45:44.959Z,1.80
2018-03-04T06:48:13.251Z,1.80
2018-03-04T06:50:41.518Z,1.80
2018-03-04T06:53:09.809Z,1.80
2018-03-04T06:55:37.305Z,1.80
2018-03-04T06:58:04.831Z,1.80
2018-03-04T07:00:32.331Z,1.80
2018-03-04T07:02:59.830Z,1.90
2018-03-04T07:05:28.118Z,1.90
2018-03-04T07:07:55.619Z,1.90
2018-03-04T07:10:23.143Z,1.90
2018-03-04T07:12:50.641Z,1.90
2018-03-04T07:15:18.167Z,2.00
2018-03-04T07:17:45.670Z,2.00
2018-03-04T07:20:13.175Z,2.10
2018-03-04T07:22:40.699Z,2.10
2018-03-04T07:25:08.201Z,2.10
2018-03-04T07:27:35.718Z,2.20
2018-03-04T07:30:03.998Z,2.10
2018-03-04T07:32:32.290Z,2.20
2018-03-04T07:35:00.564Z,2.30
2018-03-04T07:37:28.830Z,2.30
2018-03-04T07:39:57.707Z,2.40
2018-03-04T07:42:25.206Z,2.30
2018-03-04T07:44:52.733Z,2.40
2018-03-04T07:47:21.019Z,2.50
2018-03-04T07:49:48.559Z,2.50
2018-03-04T07:52:16.059Z,2.60
2018-03-04T07:54:43.558Z,2.70
2018-03-04T07:57:11.073Z,2.70
2018-03-04T07:59:38.566Z,2.80
2018-03-04T08:02:06.086Z,3.00
2018-03-04T08:04:33.588Z,3.20
2018-03-04T08:07:01.115Z,3.40
2018-03-04T08:09:28.614Z,3.60
2018-03-04T08:11:56.106Z,3.80
2018-03-04T08:14:24.398Z,4.20
2018-03-04T08:16:51.902Z,4.20
2018-03-04T08:19:19.430Z,4.30
2018-03-04T08:21:46.930Z,4.30
2018-03-04T08:27:30.236Z,4.50
2018-03-04T08:29:57.758Z,4.60
2018-03-04T08:32:26.026Z,4.70
2018-03-04T08:34:53.526Z,4.70
2018-03-04T08:37:21.066Z,4.70
2018-03-04T08:39:49.331Z,4.70
2018-03-04T08:42:17.615Z,4.80
2018-03-04T08:44:45.878Z,4.80
2018-03-04T08:47:14.166Z,4.80
2018-03-04T08:49:42.430Z,4.90
2018-03-04T08:52:10.689Z,5.00
2018-03-04T08:54:38.210Z,5.00
2018-03-04T08:57:05.710Z,5.20
2018-03-04T08:59:33.230Z,5.40
2018-03-04T09:02:00.726Z,5.70
2018-03-04T09:04:28.249Z,5.90
2018-03-04T09:06:55.746Z,6.20
2018-03-04T09:09:23.242Z,6.60
2018-03-04T09:11:50.763Z,7.20
2018-03-04T09:14:18.273Z,8.00
2018-03-04T09:16:45.798Z,9.30
2018-03-04T09:19:14.070Z,11.80
2018-03-04T09:21:42.362Z,12.80
2018-03-04T09:24:10.630Z,12.40
2018-03-04T09:26:38.903Z,12.70
2018-03-04T09:29:07.194Z,12.90
2018-03-04T09:31:34.694Z,12.90
2018-03-04T09:34:02.222Z,12.90
2018-03-04T09:36:29.730Z,13.30
2018-03-04T09:38:57.234Z,13.60
2018-03-04T09:41:24.762Z,13.90
2018-03-04T09:43:52.266Z,14.00
2018-03-04T09:46:19.795Z,14.00
2018-03-04T09:48:48.058Z,13.20
2018-03-04T09:51:16.325Z,12.90
2018-03-04T09:53:44.621Z,12.50
2018-03-04T09:56:12.895Z,11.90
2018-03-04T09:58:41.186Z,11.30
2018-03-04T10:01:08.689Z,11.30
2018-03-04T10:03:36.189Z,11.00
2018-03-04T10:06:04.482Z,11.70
2018-03-04T10:08:31.990Z,11.60
2018-03-04T10:10:59.514Z,12.10
2018-03-04T10:13:27.015Z,12.20
2018-03-04T10:15:54.518Z,12.60
2018-03-04T10:18:22.048Z,13.40
2018-03-04T10:20:49.551Z,13.90
2018-03-04T10:23:17.075Z,14.00
2018-03-04T10:25:45.346Z,13.20
2018-03-04T10:28:13.614Z,12.90
2018-03-04T10:30:41.142Z,12.80
2018-03-04T10:33:08.642Z,12.60
2018-03-04T10:35:36.930Z,11.90
2018-03-04T10:38:05.193Z,11.60
2018-03-04T10:40:33.486Z,11.70
2018-03-04T10:43:00.986Z,11.70
2018-03-04T10:45:28.487Z,11.80
2018-03-04T10:47:56.780Z,12.30
2018-03-04T10:50:24.282Z,12.30
2018-03-04T10:52:51.809Z,12.20
2018-03-04T10:55:19.322Z,12.20
2018-03-04T10:57:46.858Z,12.60
2018-03-04T11:00:14.367Z,13.70
2018-03-04T11:02:42.658Z,15.30
2018-03-04T11:05:10.177Z,15.30
2018-03-04T11:07:37.704Z,16.10
2018-03-04T11:10:05.210Z,16.80
2018-03-04T11:12:33.478Z,18.40
2018-03-04T11:15:00.998Z,18.40
2018-03-04T11:17:28.507Z,19.30
2018-03-04T11:19:56.030Z,20.00
2018-03-04T11:22:23.529Z,20.10
2018-03-04T11:24:51.821Z,19.30
2018-03-04T11:27:19.321Z,19.30
2018-03-04T11:29:46.818Z,19.20
2018-03-04T11:32:15.106Z,22.10
2018-03-04T11:34:42.610Z,22.00
2018-03-04T11:37:10.142Z,23.00
2018-03-04T11:39:37.647Z,23.10
2018-03-04T11:42:05.172Z,22.80
2018-03-04T11:44:32.671Z,22.30
2018-03-04T11:47:00.171Z,22.20
2018-03-04T11:49:27.689Z,21.90
2018-03-04T11:51:55.191Z,22.00
2018-03-04T11:54:22.716Z,21.70
2018-03-04T11:56:50.982Z,21.40
2018-03-04T11:59:18.515Z,21.40
2018-03-04T12:01:46.014Z,21.00
2018-03-04T12:04:14.285Z,20.30
2018-03-04T12:06:42.580Z,20.30
2018-03-04T12:09:10.082Z,20.30
2018-03-04T12:11:37.602Z,20.40
2018-03-04T12:14:05.098Z,20.40
2018-03-04T12:16:32.619Z,20.60
2018-03-04T12:19:00.122Z,21.40
2018-03-04T12:21:27.621Z,21.50
2018-03-04T12:23:55.925Z,21.90
2018-03-04T12:26:23.431Z,21.90
2018-03-04T12:28:50.955Z,21.30
2018-03-04T12:31:18.453Z,21.30
2018-03-04T12:33:45.973Z,22.10
2018-03-04T12:36:13.470Z,23.10
2018-03-04T12:38:40.974Z,23.30
2018-03-04T12:41:08.494Z,23.40
2018-03-04T12:43:36.758Z,24.20
2018-03-04T12:46:05.050Z,24.00
2018-03-04T12:48:33.314Z,23.80
2018-03-04T12:51:00.838Z,23.80
2018-03-04T12:53:28.338Z,24.40
2018-03-04T12:55:56.606Z,23.70
2018-03-04T12:58:24.130Z,23.70
2018-03-04T13:00:51.638Z,22.70
2018-03-04T13:03:19.925Z,22.20
2018-03-04T13:05:48.191Z,21.90
2018-03-04T13:08:16.477Z,21.30
2018-03-04T13:10:43.975Z,21.20
2018-03-04T13:13:11.474Z,21.10
2018-03-04T13:15:39.047Z,21.00
2018-03-04T13:18:06.525Z,20.30
2018-03-04T13:20:34.046Z,20.10
2018-03-04T13:23:01.547Z,20.30
2018-03-04T13:25:29.071Z,20.20
2018-03-04T13:27:56.570Z,20.00
2018-03-04T13:30:24.074Z,19.80
2018-03-04T13:32:51.600Z,19.70
2018-03-04T13:35:19.102Z,19.50
2018-03-04T13:37:46.627Z,19.30
2018-03-04T13:40:14.133Z,19.20
2018-03-04T13:42:42.426Z,19.20
2018-03-04T13:45:09.926Z,19.10
2018-03-04T13:47:37.427Z,19.20
2018-03-04T13:50:05.714Z,18.80
2018-03-04T13:52:33.214Z,18.80
2018-03-04T13:55:00.765Z,18.60
2018-03-04T13:57:28.259Z,18.00
2018-03-04T13:59:56.567Z,17.40
2018-03-04T14:02:24.070Z,17.30
2018-03-04T14:04:51.589Z,17.10
2018-03-04T14:07:19.118Z,17.10
2018-03-04T14:09:47.386Z,16.40
2018-03-04T14:12:14.910Z,16.40
2018-03-04T14:14:42.418Z,16.10
2018-03-04T14:17:10.711Z,15.90
2018-03-04T14:19:38.974Z,15.90
2018-03-04T14:22:07.238Z,15.90
2018-03-04T14:24:34.762Z,15.80
2018-03-04T14:27:02.265Z,15.80
2018-03-04T14:29:30.546Z,15.50
2018-03-04T14:31:58.818Z,15.30
2018-03-04T14:34:27.106Z,15.20
2018-03-04T14:36:55.420Z,15.10
2018-03-04T14:39:22.898Z,15.10
2018-03-04T14:41:50.426Z,14.70
2018-03-04T14:44:17.925Z,14.50
2018-03-04T14:46:45.449Z,14.50
2018-03-04T14:49:12.950Z,14.40
2018-03-04T14:51:41.994Z,14.20
2018-03-04T14:54:09.495Z,14.20
2018-03-04T14:56:36.993Z,14.10
2018-03-04T14:59:04.513Z,13.90
2018-03-04T15:01:32.015Z,13.80
2018-03-04T15:03:59.534Z,13.60
2018-03-04T15:06:27.034Z,13.50
2018-03-04T15:08:54.558Z,13.20
2018-03-04T15:11:22.058Z,13.10
2018-03-04T15:13:49.562Z,13.00
2018-03-04T15:16:17.086Z,12.90
2018-03-04T15:18:44.581Z,12.80
2018-03-04T15:21:12.101Z,12.60
2018-03-04T15:23:39.598Z,12.60
2018-03-04T15:26:07.126Z,12.40
2018-03-04T15:28:34.621Z,12.20
2018-03-04T15:31:02.123Z,12.00
2018-03-04T15:33:29.647Z,12.00
2018-03-04T15:35:57.150Z,12.00
2018-03-04T15:38:24.674Z,11.90
2018-03-04T15:40:52.938Z,11.80
2018-03-04T15:43:20.516Z,11.80
2018-03-04T15:45:47.982Z,11.70
2018-03-04T15:48:15.483Z,11.70
2018-03-04T15:50:43.010Z,11.50
2018-03-04T15:53:10.513Z,11.40
2018-03-04T15:55:38.034Z,11.20
2018-03-04T15:58:05.534Z,11.20
2018-03-04T16:00:33.059Z,11.10
2018-03-04T16:03:00.558Z,10.90
2018-03-04T16:05:28.061Z,10.80
2018-03-04T16:07:55.586Z,10.70
2018-03-04T16:10:23.086Z,10.70
2018-03-04T16:12:50.607Z,10.50
2018-03-04T16:15:18.878Z,10.10
2018-03-04T16:17:47.165Z,10.10
2018-03-04T16:20:15.430Z,10.00
2018-03-04T16:22:43.703Z,10.00
2018-03-04T16:25:11.994Z,9.90
2018-03-04T16:27:40.250Z,9.80
2018-03-04T16:30:07.773Z,9.80
2018-03-04T16:32:35.266Z,9.80
2018-03-04T16:35:02.786Z,9.70
2018-03-04T16:37:30.282Z,9.60
2018-03-04T16:39:58.526Z,9.50
2018-03-04T16:42:26.051Z,9.40
2018-03-04T16:44:53.546Z,9.40
2018-03-04T16:47:21.062Z,9.30
2018-03-04T16:49:49.318Z,9.20
2018-03-04T16:52:17.619Z,9.20
2018-03-04T16:54:45.129Z,9.20
2018-03-04T16:57:12.630Z,9.10
2018-03-04T16:59:40.916Z,9.00
2018-03-04T17:02:08.410Z,9.00
2018-03-04T17:04:35.936Z,9.00
2018-03-04T17:07:03.444Z,8.80
2018-03-04T17:09:30.962Z,8.80
2018-03-04T17:11:58.458Z,8.60
2018-03-04T17:14:25.960Z,8.60
2018-03-04T17:16:54.238Z,8.50
2018-03-04T17:19:21.734Z,8.50
2018-03-04T17:21:49.250Z,8.50
2018-03-04T17:24:17.513Z,8.30
2018-03-04T17:26:45.798Z,8.20
2018-03-04T17:29:14.056Z,8.10
2018-03-04T17:31:41.555Z,8.10
2018-03-04T17:34:09.102Z,8.00
2018-03-04T17:36:36.598Z,8.00
2018-03-04T17:39:04.135Z,7.90
2018-03-04T17:41:31.634Z,7.80
2018-03-04T17:43:59.153Z,7.60
2018-03-04T17:46:26.650Z,7.50
2018-03-04T17:48:54.146Z,7.50
2018-03-04T17:51:22.429Z,7.50
2018-03-04T17:53:49.930Z,7.50
2018-03-04T17:56:17.450Z,7.50
2018-03-04T17:58:44.942Z,7.40
2018-03-04T18:01:12.462Z,7.40
2018-03-04T18:03:39.960Z,7.30
2018-03-04T18:06:07.469Z,7.20
2018-03-04T18:08:35.754Z,7.20
2018-03-04T18:11:04.014Z,7.20
2018-03-04T18:13:32.299Z,7.20
2018-03-04T18:16:00.578Z,7.10
2018-03-04T18:18:28.098Z,7.10
2018-03-04T18:20:55.641Z,7.10
2018-03-04T18:23:23.118Z,7.10
2018-03-04T18:25:50.634Z,7.00
2018-03-04T18:28:18.134Z,7.00
2018-03-04T18:30:45.650Z,7.00
2018-03-04T18:33:13.146Z,7.00
2018-03-04T18:35:40.685Z,7.00
2018-03-04T18:38:08.182Z,6.90
2018-03-04T18:40:35.679Z,6.90
2018-03-04T18:43:03.198Z,6.80
2018-03-04T18:45:30.694Z,6.80
2018-03-04T18:47:58.207Z,6.80
2018-03-04T18:50:25.697Z,6.80
2018-03-04T18:52:53.982Z,6.70
2018-03-04T18:55:21.478Z,6.70
2018-03-04T18:57:48.976Z,6.70
2018-03-04T19:00:17.257Z,6.70
2018-03-04T19:02:45.518Z,6.60
2018-03-04T19:05:13.034Z,6.60
2018-03-04T19:07:40.530Z,6.60
2018-03-04T19:10:08.059Z,6.70
2018-03-04T19:12:35.554Z,6.70
2018-03-04T19:15:04.559Z,6.60
2018-03-04T19:17:32.845Z,6.60
2018-03-04T19:20:01.102Z,6.50
2018-03-04T19:22:28.628Z,6.50
2018-03-04T19:24:56.131Z,6.50
2018-03-04T19:27:24.431Z,6.50
2018-03-04T19:29:51.925Z,6.50
2018-03-04T19:32:19.418Z,6.50
2018-03-04T19:34:47.710Z,6.60
2018-03-04T19:37:15.976Z,6.60
2018-03-04T19:39:44.258Z,6.60
2018-03-04T19:42:12.522Z,6.60
2018-03-04T19:44:40.811Z,6.60
2018-03-04T19:47:09.067Z,6.60
2018-03-04T19:49:36.567Z,6.60
2018-03-04T19:52:04.134Z,6.70
2018-03-04T19:54:31.635Z,6.70
2018-03-04T19:56:59.158Z,6.60
2018-03-04T19:59:26.657Z,6.60
2018-03-04T20:01:54.181Z,6.60
2018-03-04T20:04:21.680Z,6.70
2018-03-04T20:06:49.946Z,6.70
2018-03-04T20:09:17.471Z,6.60
2018-03-04T20:11:44.970Z,6.70
2018-03-04T20:14:12.490Z,6.70
2018-03-04T20:16:39.986Z,6.70
2018-03-04T20:19:07.526Z,6.70
2018-03-04T20:21:35.033Z,6.60
2018-03-04T20:24:02.531Z,6.60
2018-03-04T20:26:30.056Z,6.50
2018-03-04T20:28:57.559Z,6.50
2018-03-04T20:31:25.079Z,6.50
2018-03-04T20:33:52.569Z,6.40
2018-03-04T20:36:20.097Z,6.40
2018-03-04T20:38:47.598Z,6.40
2018-03-04T20:41:15.090Z,6.30
2018-03-04T20:43:43.370Z,6.40
2018-03-04T20:46:11.630Z,6.40
2018-03-04T20:48:39.915Z,6.50
2018-03-04T20:51:08.178Z,6.50
2018-03-04T20:53:35.693Z,6.50
2018-03-04T20:56:03.186Z,6.50
2018-03-04T20:58:30.678Z,6.50
2018-03-04T21:00:58.199Z,6.50
2018-03-04T21:03:25.690Z,6.50
2018-03-04T21:05:53.978Z,6.50
2018-03-04T21:08:21.478Z,6.40
2018-03-04T21:10:48.995Z,6.40
2018-03-04T21:13:16.491Z,6.40
2018-03-04T21:15:43.985Z,6.40
2018-03-04T21:18:12.266Z,6.40
2018-03-04T21:20:40.521Z,6.40
2018-03-04T21:23:08.045Z,6.40
2018-03-04T21:25:35.542Z,6.40
2018-03-04T21:28:03.062Z,6.40
2018-03-04T21:30:30.560Z,6.50
2018-03-04T21:32:58.834Z,6.50
2018-03-04T21:35:26.354Z,6.50
2018-03-04T21:37:53.858Z,6.50
2018-03-04T21:40:21.385Z,6.50
2018-03-04T21:42:48.873Z,6.50
2018-03-04T21:45:16.395Z,6.60
2018-03-04T21:47:43.896Z,6.60
2018-03-04T21:50:12.167Z,6.60
2018-03-04T21:52:41.189Z,6.60
2018-03-04T21:55:08.702Z,6.60
2018-03-04T21:57:36.218Z,6.70
2018-03-04T22:00:03.743Z,6.70
2018-03-04T22:02:32.034Z,6.60
2018-03-04T22:05:00.293Z,6.60
2018-03-04T22:07:27.791Z,6.60
2018-03-04T22:09:55.326Z,6.70
2018-03-04T22:12:23.590Z,6.70
2018-03-04T22:14:51.875Z,6.60
2018-03-04T22:17:20.134Z,6.60
2018-03-04T22:19:47.650Z,6.60
2018-03-04T22:22:15.142Z,6.60
2018-03-04T22:24:42.639Z,6.60
2018-03-04T22:27:10.158Z,6.60
2018-03-04T22:29:37.658Z,6.60
2018-03-04T22:32:05.174Z,6.50
2018-03-04T22:34:32.669Z,6.50
2018-03-04T22:37:00.195Z,6.50
2018-03-04T22:39:27.686Z,6.40
2018-03-04T22:41:55.942Z,6.30
2018-03-04T22:44:24.229Z,6.30
2018-03-04T22:46:52.494Z,6.30
2018-03-04T22:49:20.777Z,6.20
2018-03-04T22:51:49.048Z,6.20
2018-03-04T22:54:17.338Z,6.20
2018-03-04T22:56:45.660Z,6.10
2018-03-04T22:59:13.159Z,6.10
2018-03-04T23:01:41.450Z,6.00
2018-03-04T23:04:09.706Z,6.00
2018-03-04T23:06:37.221Z,6.00
2018-03-04T23:09:05.475Z,6.00
2018-03-04T23:11:32.990Z,6.00
2018-03-04T23:14:00.485Z,6.00
2018-03-04T23:16:27.998Z,6.00
2018-03-04T23:18:55.515Z,6.00
2018-03-04T23:21:23.011Z,6.10
2018-03-04T23:23:50.531Z,6.10
2018-03-04T23:26:18.030Z,6.10
2018-03-04T23:28:45.550Z,6.10
2018-03-04T23:31:13.046Z,6.10
2018-03-04T23:33:40.543Z,6.10
2018-03-04T23:36:08.831Z,6.10
2018-03-04T23:38:36.330Z,6.10
2018-03-04T23:41:03.858Z,6.00
2018-03-04T23:43:31.358Z,6.00
2018-03-04T23:45:58.878Z,5.90
2018-03-04T23:48:26.375Z,5.80
2018-03-04T23:50:53.875Z,5.80
2018-03-04T23:53:21.399Z,5.80
2018-03-04T23:55:48.894Z,5.70
2018-03-04T23:58:16.414Z,5.70
